createdAt,value
2022-12-16T00:01:05.194Z,0.70
2022-12-16T00:06:33.798Z,0.97
2022-12-16T00:11:38.569Z,1.37
2022-12-16T00:16:47.399Z,1.10
2022-12-16T00:21:51.881Z,1.30
2022-12-16T00:27:00.561Z,1.40
2022-12-16T00:32:06.487Z,1.03
2022-12-16T00:37:13.465Z,1.20
2022-12-16T00:42:16.733Z,0.87
2022-12-16T00:47:29.800Z,1.20
2022-12-16T00:52:39.996Z,1.37
2022-12-16T00:57:45.228Z,1.50
2022-12-16T01:02:53.803Z,1.03
2022-12-16T01:07:58.084Z,1.00
2022-12-16T01:13:06.622Z,1.10
2022-12-16T01:18:17.750Z,1.50
2022-12-16T01:23:24.158Z,1.30
2022-12-16T01:28:29.104Z,2.13
2022-12-16T01:33:41.072Z,1.27
2022-12-16T01:38:45.401Z,1.30
2022-12-16T01:44:05.241Z,1.37
2022-12-16T01:49:13.445Z,1.83
2022-12-16T01:54:24.265Z,1.20
2022-12-16T01:59:29.765Z,1.03
2022-12-16T02:04:34.115Z,1.10
2022-12-16T02:09:37.016Z,1.10
2022-12-16T02:15:19.962Z,1.60
2022-12-16T02:20:46.620Z,1.47
2022-12-16T02:26:04.344Z,1.10
2022-12-16T02:31:20.599Z,1.37
2022-12-16T02:36:30.301Z,0.80
2022-12-16T02:41:42.332Z,1.13
2022-12-16T02:46:55.491Z,1.10
2022-12-16T02:52:00.298Z,1.63
2022-12-16T02:57:12.227Z,1.47
2022-12-16T03:02:21.938Z,1.40
2022-12-16T03:07:27.422Z,1.27
2022-12-16T03:12:30.374Z,1.53
2022-12-16T03:17:36.717Z,0.80
2022-12-16T03:22:44.276Z,1.03
2022-12-16T03:27:52.438Z,1.57
2022-12-16T03:33:00.755Z,0.97
2022-12-16T03:38:05.362Z,1.33
2022-12-16T03:43:08.757Z,1.30
2022-12-16T03:48:15.615Z,1.00
2022-12-16T03:53:18.677Z,0.80
2022-12-16T03:58:21.847Z,1.20
2022-12-16T04:03:26.142Z,0.97
2022-12-16T04:08:29.204Z,1.03
2022-12-16T04:13:49.427Z,1.30
2022-12-16T04:19:10.918Z,1.43
2022-12-16T04:24:24.191Z,1.20
2022-12-16T04:29:27.087Z,1.07
2022-12-16T04:34:31.312Z,1.07
2022-12-16T04:39:51.697Z,1.57
2022-12-16T04:45:08.715Z,1.27
2022-12-16T04:50:30.494Z,1.93
2022-12-16T04:55:50.694Z,1.07
2022-12-16T05:01:10.792Z,1.53
2022-12-16T05:06:33.058Z,1.37
2022-12-16T05:11:53.529Z,0.70
2022-12-16T05:17:14.062Z,1.30
2022-12-16T05:22:36.428Z,1.40
2022-12-16T05:27:56.983Z,1.57
2022-12-16T05:33:17.376Z,1.90
2022-12-16T05:38:39.210Z,1.53
2022-12-16T05:43:59.834Z,2.03
2022-12-16T05:49:20.307Z,1.30
2022-12-16T05:54:42.284Z,1.60
2022-12-16T06:00:02.636Z,2.00
2022-12-16T06:11:13.369Z,2.47
2022-12-16T06:16:42.027Z,2.53
2022-12-16T06:22:02.389Z,2.10
2022-12-16T06:27:24.012Z,2.03
2022-12-16T06:32:44.269Z,2.67
2022-12-16T06:38:05.964Z,3.43
2022-12-16T06:43:27.714Z,3.20
2022-12-16T06:48:44.430Z,2.70
2022-12-16T06:54:04.861Z,2.80
2022-12-16T06:59:26.369Z,2.60
2022-12-16T07:04:46.937Z,4.57
2022-12-16T07:10:15.619Z,7.70
2022-12-16T07:15:37.020Z,19.83
2022-12-16T07:20:57.218Z,18.27
2022-12-16T07:26:17.407Z,7.20
2022-12-16T07:31:39.191Z,3.97
2022-12-16T07:36:59.684Z,3.13
2022-12-16T07:42:20.153Z,3.83
2022-12-16T07:47:41.780Z,4.70
2022-12-16T07:53:02.343Z,3.87
2022-12-16T07:58:22.928Z,3.90
2022-12-16T08:03:44.639Z,3.73
2022-12-16T08:09:05.124Z,2.87
2022-12-16T08:14:25.560Z,2.73
2022-12-16T08:19:47.357Z,2.43
2022-12-16T08:25:07.836Z,2.03
2022-12-16T08:30:28.925Z,3.07
2022-12-16T08:35:55.343Z,4.33
2022-12-16T08:41:15.768Z,2.60
2022-12-16T08:46:36.873Z,2.50
2022-12-16T08:51:58.731Z,3.90
2022-12-16T08:57:19.530Z,3.23
2022-12-16T09:02:37.688Z,2.73
2022-12-16T09:07:59.639Z,3.13
2022-12-16T09:13:27.038Z,2.60
2022-12-16T09:18:47.388Z,2.90
2022-12-16T09:24:09.165Z,2.47
2022-12-16T09:29:29.528Z,2.80
2022-12-16T09:34:52.544Z,3.37
2022-12-16T09:40:14.903Z,3.13
2022-12-16T09:45:39.819Z,3.20
2022-12-16T09:51:01.711Z,3.93
2022-12-16T09:56:26.617Z,3.10
2022-12-16T10:01:55.903Z,3.37
2022-12-16T10:07:18.200Z,3.73
2022-12-16T10:12:49.054Z,3.10
2022-12-16T10:18:09.274Z,2.67
2022-12-16T10:23:36.085Z,3.07
2022-12-16T10:29:03.531Z,3.47
2022-12-16T10:34:28.598Z,3.20
2022-12-16T10:39:52.767Z,3.70
2022-12-16T10:45:16.708Z,3.27
2022-12-16T10:50:37.272Z,4.57
2022-12-16T10:56:08.612Z,3.27
2022-12-16T11:01:42.228Z,2.53
2022-12-16T11:07:03.115Z,2.70
2022-12-16T11:12:48.042Z,4.13
2022-12-16T11:18:21.061Z,3.00
2022-12-16T11:23:42.629Z,3.43
2022-12-16T11:29:03.204Z,3.57
2022-12-16T11:34:25.287Z,3.60
2022-12-16T11:39:48.139Z,2.57
2022-12-16T11:45:11.606Z,2.87
2022-12-16T11:50:36.549Z,3.50
2022-12-16T11:56:07.705Z,3.83
2022-12-16T12:01:41.477Z,2.77
2022-12-16T12:07:45.720Z,2.07
2022-12-16T12:13:08.118Z,2.53
2022-12-16T12:18:35.786Z,2.77
2022-12-16T12:24:04.588Z,2.20
2022-12-16T12:29:41.729Z,2.37
2022-12-16T12:35:16.256Z,1.90
2022-12-16T12:41:06.859Z,3.20
2022-12-16T12:46:31.353Z,1.40
2022-12-16T12:51:58.053Z,2.03
2022-12-16T12:57:20.971Z,2.67
2022-12-16T13:02:45.176Z,1.37
2022-12-16T13:08:05.718Z,1.43
2022-12-16T13:13:47.780Z,1.53
2022-12-16T13:19:58.218Z,1.43
2022-12-16T13:25:23.887Z,1.50
2022-12-16T13:30:47.418Z,1.20
2022-12-16T13:36:12.375Z,1.40
2022-12-16T13:42:06.254Z,1.77
2022-12-16T13:47:50.040Z,1.20
2022-12-16T13:53:21.922Z,1.60
2022-12-16T13:58:50.015Z,1.70
2022-12-16T14:04:12.347Z,1.73
2022-12-16T14:09:43.440Z,1.80
2022-12-16T14:15:08.698Z,1.67
2022-12-16T14:20:33.965Z,1.60
2022-12-16T14:25:54.369Z,1.40
2022-12-16T14:31:22.778Z,1.43
2022-12-16T14:36:47.069Z,1.57
2022-12-16T14:42:09.752Z,1.60
2022-12-16T14:47:35.213Z,1.83
2022-12-16T14:53:01.221Z,1.47
2022-12-16T14:58:29.038Z,2.03
2022-12-16T15:03:52.235Z,1.97
2022-12-16T15:09:16.845Z,2.80
2022-12-16T15:14:42.011Z,1.67
2022-12-16T15:20:05.092Z,1.93
2022-12-16T15:25:37.845Z,2.87
2022-12-16T15:31:00.036Z,1.97
2022-12-16T15:36:21.589Z,2.43
2022-12-16T15:41:51.052Z,2.43
2022-12-16T15:47:11.312Z,2.17
2022-12-16T15:52:45.152Z,2.33
2022-12-16T15:58:14.919Z,3.30
2022-12-16T16:03:39.874Z,3.40
2022-12-16T16:09:00.387Z,3.37
2022-12-16T16:14:22.116Z,2.87
2022-12-16T16:19:44.122Z,3.03
2022-12-16T16:25:04.610Z,3.00
2022-12-16T16:30:29.130Z,2.10
2022-12-16T16:35:50.553Z,2.90
2022-12-16T16:41:22.645Z,3.73
2022-12-16T16:46:50.843Z,2.77
2022-12-16T16:52:11.531Z,3.33
2022-12-16T16:57:31.983Z,2.63
2022-12-16T17:02:54.008Z,3.07
2022-12-16T17:08:14.912Z,2.67
2022-12-16T17:13:35.798Z,2.67
2022-12-16T17:18:59.969Z,2.53
2022-12-16T17:24:20.586Z,2.87
2022-12-16T17:29:42.779Z,3.73
2022-12-16T17:35:04.451Z,6.37
2022-12-16T17:40:24.750Z,7.70
2022-12-16T17:45:45.246Z,5.40
2022-12-16T17:51:07.092Z,6.90
2022-12-16T17:56:27.500Z,5.37
2022-12-16T18:01:48.093Z,6.27
2022-12-16T18:07:09.813Z,6.00
2022-12-16T18:12:32.881Z,6.57
2022-12-16T18:17:53.237Z,6.47
2022-12-16T18:23:14.748Z,12.23
2022-12-16T18:28:35.355Z,7.37
2022-12-16T18:33:55.878Z,5.73
2022-12-16T18:39:17.671Z,5.93
2022-12-16T18:44:38.101Z,5.07
2022-12-16T18:49:58.429Z,5.13
2022-12-16T18:55:20.193Z,3.67
2022-12-16T19:00:40.438Z,5.83
2022-12-16T19:06:00.893Z,5.17
2022-12-16T19:11:22.689Z,5.60
2022-12-16T19:16:43.504Z,5.60
2022-12-16T19:22:05.182Z,4.70
2022-12-16T19:27:27.018Z,4.33
2022-12-16T19:32:47.330Z,6.33
2022-12-16T19:38:07.954Z,6.27
2022-12-16T19:43:29.838Z,6.30
2022-12-16T19:48:50.177Z,6.60
2022-12-16T19:54:33.423Z,4.60
2022-12-16T19:59:55.000Z,5.20
2022-12-16T20:05:16.592Z,4.77
2022-12-16T20:10:36.992Z,5.60
2022-12-16T20:15:58.826Z,4.83
2022-12-16T20:21:20.923Z,4.83
2022-12-16T20:26:41.136Z,5.33
2022-12-16T20:32:02.974Z,5.77
2022-12-16T20:37:23.362Z,6.33
2022-12-16T20:42:44.387Z,6.40
2022-12-16T20:48:06.113Z,8.80
2022-12-16T20:53:26.606Z,10.83
2022-12-16T20:58:46.292Z,9.87
2022-12-16T21:04:08.299Z,11.30
2022-12-16T21:09:29.108Z,11.57
2022-12-16T21:14:49.637Z,11.27
2022-12-16T21:20:11.544Z,14.53
2022-12-16T21:25:31.668Z,12.53
2022-12-16T21:30:51.977Z,13.13
2022-12-16T21:36:13.653Z,12.17
2022-12-16T21:41:34.140Z,13.73
2022-12-16T21:46:55.260Z,12.27
2022-12-16T21:52:18.141Z,14.63
2022-12-16T21:57:38.693Z,15.03
2022-12-16T22:02:59.310Z,15.37
2022-12-16T22:08:25.924Z,15.77
2022-12-16T22:13:49.066Z,14.83
2022-12-16T22:19:11.918Z,15.80
2022-12-16T22:24:33.828Z,16.53
2022-12-16T22:29:54.228Z,16.30
2022-12-16T22:35:16.249Z,16.90
2022-12-16T22:40:38.273Z,15.03
2022-12-16T22:45:58.679Z,16.40
2022-12-16T22:51:27.568Z,16.70
2022-12-16T22:56:49.099Z,17.67
2022-12-16T23:02:09.624Z,17.30
2022-12-16T23:07:30.189Z,17.97
2022-12-16T23:12:52.086Z,15.80
2022-12-16T23:18:12.881Z,16.30
2022-12-16T23:23:33.489Z,14.47
2022-12-16T23:28:55.025Z,14.97
2022-12-16T23:34:28.590Z,15.27
2022-12-16T23:39:49.095Z,16.07
2022-12-16T23:45:10.989Z,15.50
2022-12-16T23:50:31.389Z,16.73
2022-12-16T23:55:51.749Z,14.53
